KCPF Airport (Wendell H Ford) Information

FAA: CPF - ICAO: KCPF

KCPF Airport Location

State Kentucky
County Perry
City Hazard
KCPF Airport is 10 miles northwest of Hazard, KY.
Latitude 37-23-14.5000N
Longitude 083-15-41.8000W
Elevation 1,256ft

KCPF Airport METARs

METAR KCPF 032315Z AUTO 23004KT 10SM CLR 18/03 A2997 RMK AO2
Altimeter 29.97"
Temperature 18.0°C (64.4°F)
Wind 230° at 4KT
Clouds Skies are clear.
Visibility 10.0mi
Time observed: 2021-12-03T23:15:00Z

KCPF Airport Details

Status Operational
Activation November 1983
Ownership Public
Usage Public
Chart CINCINNATI
ATC on-site No
Beacon schedule sunset-sunrise
Beacon color clear green

KCPF Airport Contacts

Owner HAZARD-PERRY COUNTY BOARD
Owner address P.O. BOX 420, HAZARD, KY 41702
Owner phone (606) 439-4518
Manager REX TUNGATE
Manager address 202-206 MILBY STREET, GREENSBURG, KY 42743
Manager phone 270-932-4211

KCPF Airport (Wendell H Ford) Radio Frequencies

KCPF (Airport) Radio Frequencies

UNICOM 122.7
Common traffic advisory frequency (CTAF) 122.7